KFPR

Treasure Coast International Airport

Fort Pierce, Florida, USA
METAR KFPR 160053Z 20003KT 10SM OVC050 21/18 A3008 RMK AO2 SLP185 T02060178
Observed Flight Rules
Dec-16 @ 00:53 UTC (23 minutes ago) Visual Flight Rules
Wind Visibility Clouds
200° at 3 knots 10 miles
  • Overcast at 5,000' AGL
Temperatures Readings
Current 21°C / 70°F
Dewpoint 18°C / 64°F
Humidity 83%
Altimeter 30.08" Hg
Pressure 1018.5 hPa
Elevation 13
METAR KFPR 160053Z 20003KT 10SM OVC050 21/18 A3008 RMK AO2 SLP185 T02060178
Observed Flight Rules
Dec-16 @ 00:53 UTC
(23 minutes ago)
VFR
Wind Visibility
200° at 3 knots 10 miles
Clouds
  • Overcast at 5,000' AGL
Temperature Dewpoint
21°C / 70°F 18°C / 64°F
Humidity Altimeter Pressure
83% 30.08" Hg 1018.5 hPa